Time;durP1;ratioP1;P1;durP2;ratioP2;P2;SDS_P1;SDS_P2;PMS_P1;PMS_P2;Temp;Humidity;BMP_temperature;BMP_pressure;BME280_temperature;BME280_humidity;BME280_pressure;Samples;Min_cycle;Max_cycle;Signal;HPM_P1;HPM_P2
2022/01/24 00:01:27;;;;;;;4.40;1.20;;;7.80;97.80;;;;;;5053125;28;20049;-70
2022/01/24 00:03:57;;;;;;;3.03;1.33;;;7.80;97.20;;;;;;5053019;28;20086;-70
2022/01/24 00:06:27;;;;;;;3.60;1.13;;;7.70;97.10;;;;;;5053681;28;20060;-73
2022/01/24 00:08:53;;;;;;;2.70;1.10;;;7.70;97.70;;;;;;5053662;28;20025;-72
2022/01/24 00:11:24;;;;;;;3.47;1.00;;;7.70;97.60;;;;;;5035552;28;20032;-72
2022/01/24 00:27:21;;;;;;;2.75;1.00;;;7.60;97.10;;;;;;5052929;28;20109;-70
2022/01/24 00:29:47;;;;;;;6.53;2.10;;;7.50;97.20;;;;;;5052813;28;20028;-70
2022/01/24 00:32:13;;;;;;;3.40;0.90;;;7.50;97.00;;;;;;5052759;28;20100;-70
2022/01/24 00:34:40;;;;;;;1.90;0.80;;;7.40;97.30;;;;;;5053103;28;20159;-70
2022/01/24 00:37:07;;;;;;;3.22;0.85;;;7.40;97.20;;;;;;5052863;28;20064;-70
2022/01/24 00:39:33;;;;;;;3.38;1.00;;;7.40;97.30;;;;;;5052379;28;20424;-70
2022/01/24 00:42:16;;;;;;;2.30;1.00;;;7.30;97.60;;;;;;5052813;28;20032;-70
2022/01/24 00:45:02;;;;;;;3.05;1.02;;;7.30;97.40;;;;;;5052905;28;20029;-70
2022/01/24 00:47:42;;;;;;;2.97;0.90;;;7.20;97.60;;;;;;5052775;28;20101;-70
2022/01/24 00:55:21;;;;;;;2.03;0.80;;;7.20;97.80;;;;;;5052567;28;20044;-70
2022/01/24 00:57:47;;;;;;;2.70;0.87;;;7.20;97.70;;;;;;5052479;28;20086;-70
2022/01/24 01:00:14;;;;;;;2.55;0.80;;;7.20;97.90;;;;;;5052008;28;20408;-70
2022/01/24 01:02:41;;;;;;;2.70;1.10;;;7.20;98.00;;;;;;5051473;28;20033;-70
2022/01/24 01:05:29;;;;;;;3.28;1.10;;;7.30;98.10;;;;;;5051473;28;20029;-70
2022/01/24 01:08:02;;;;;;;3.15;0.90;;;7.30;98.20;;;;;;5051020;28;20033;-72
2022/01/24 01:18:43;;;;;;;4.70;1.10;;;7.40;98.20;;;;;;5051399;28;20051;-71
2022/01/24 01:21:14;;;;;;;3.03;1.08;;;7.30;98.40;;;;;;5050879;28;20040;-70
2022/01/24 01:23:47;;;;;;;2.40;0.75;;;7.30;98.30;;;;;;5051239;28;20025;-70
2022/01/24 01:26:23;;;;;;;2.53;0.80;;;7.30;98.20;;;;;;5051165;28;20108;-70
2022/01/24 01:28:54;;;;;;;2.05;1.02;;;7.30;98.20;;;;;;5050767;28;20110;-70
2022/01/24 01:31:34;;;;;;;3.05;0.95;;;7.20;98.40;;;;;;5032941;28;20024;-70
2022/01/24 01:39:47;;;;;;;2.30;0.80;;;7.30;98.90;;;;;;5051121;28;20198;-71
2022/01/24 01:53:32;;;;;;;1.83;0.90;;;7.60;98.40;;;;;;5050807;28;20115;-71
2022/01/24 01:55:58;;;;;;;2.80;0.90;;;7.60;98.90;;;;;;5032651;28;20138;-70
2022/01/24 01:58:25;;;;;;;2.42;1.10;;;7.60;98.50;;;;;;5032550;28;20410;-71
2022/01/24 02:00:56;;;;;;;1.77;0.75;;;7.60;98.90;;;;;;5050455;28;20421;-70
2022/01/24 02:03:23;;;;;;;2.78;0.95;;;7.60;98.60;;;;;;5050835;28;20128;-70
2022/01/24 02:05:50;;;;;;;3.10;0.85;;;7.60;98.50;;;;;;5050444;28;20067;-67
2022/01/24 02:08:17;;;;;;;3.75;0.88;;;7.50;98.60;;;;;;5050397;28;20029;-71
2022/01/24 02:10:44;;;;;;;4.63;0.93;;;7.60;98.70;;;;;;5050652;28;20029;-71
2022/01/24 02:13:12;;;;;;;3.35;0.93;;;7.50;98.70;;;;;;5050133;28;20113;-70
2022/01/24 02:18:28;;;;;;;2.35;0.90;;;7.50;99.00;;;;;;5050512;28;20025;-70
2022/01/24 02:21:11;;;;;;;2.50;1.05;;;7.50;99.30;;;;;;5050125;28;20136;-70
2022/01/24 02:23:43;;;;;;;3.25;1.02;;;7.50;98.90;;;;;;5053621;28;20051;-69
2022/01/24 02:26:14;;;;;;;3.28;0.90;;;7.50;98.80;;;;;;5054620;28;20036;-71
2022/01/24 02:28:53;;;;;;;2.20;0.80;;;7.60;99.00;;;;;;5054610;28;20025;-71
2022/01/24 02:31:43;;;;;;;5.68;1.00;;;7.60;98.80;;;;;;5054267;28;20036;-71
2022/01/24 02:34:25;;;;;;;;;;;7.60;98.80;;;;;;5054011;28;20116;-72
2022/01/24 02:36:53;;;;;;;2.33;0.77;;;7.60;98.60;;;;;;5054004;28;19966;-71
2022/01/24 02:50:33;;;;;;;2.40;0.90;;;7.50;98.50;;;;;;5054339;28;20079;-70
2022/01/24 02:52:59;;;;;;;1.85;0.75;;;7.40;98.60;;;;;;5053829;28;20087;-71
2022/01/24 02:55:25;;;;;;;3.17;0.77;;;7.40;98.80;;;;;;5053791;28;20024;-71
2022/01/24 02:57:51;;;;;;;1.70;0.90;;;7.40;99.00;;;;;;5053675;28;20179;-70
2022/01/24 03:00:17;;;;;;;0.98;0.70;;;7.40;98.80;;;;;;5053764;28;20323;-69
2022/01/24 03:02:44;;;;;;;3.83;1.05;;;7.50;98.40;;;;;;5053989;28;20104;-72
2022/01/24 03:05:10;;;;;;;2.08;0.80;;;7.60;98.20;;;;;;5053670;28;20520;-72
2022/01/24 03:07:36;;;;;;;1.27;0.70;;;7.60;98.00;;;;;;5035246;28;20520;-72
2022/01/24 03:10:11;;;;;;;1.08;0.68;;;7.70;97.80;;;;;;5053456;28;20064;-72
2022/01/24 03:15:07;;;;;;;1.52;0.60;;;8.00;98.30;;;;;;5053231;28;20061;-72
2022/01/24 03:17:33;;;;;;;;;;;8.00;99.90;;;;;;5053877;28;20098;-72
2022/01/24 03:19:59;;;;;;;1.60;0.70;;;8.30;99.70;;;;;;5052941;28;19920;-72
2022/01/24 03:22:25;;;;;;;1.63;0.70;;;8.30;97.50;;;;;;5053269;28;20128;-72
2022/01/24 03:24:51;;;;;;;2.53;0.80;;;8.30;97.40;;;;;;5052985;28;20025;-72
2022/01/24 03:27:17;;;;;;;1.52;0.60;;;8.30;99.60;;;;;;5053244;28;20036;-71
2022/01/24 03:29:43;;;;;;;3.40;0.82;;;8.60;97.10;;;;;;5053160;28;20036;-73
2022/01/24 03:32:09;;;;;;;5.40;0.90;;;8.60;97.30;;;;;;5053107;28;20069;-71
2022/01/24 03:34:35;;;;;;;1.63;0.70;;;8.60;97.70;;;;;;5051473;28;20098;-72
2022/01/24 03:37:01;;;;;;;2.40;0.82;;;8.50;98.00;;;;;;5052540;28;20473;-72
2022/01/24 03:39:27;;;;;;;1.10;0.60;;;8.70;98.90;;;;;;5052824;28;20033;-72
2022/01/24 03:41:53;;;;;;;1.00;0.60;;;8.70;97.60;;;;;;5052606;28;20021;-72
2022/01/24 03:44:20;;;;;;;0.95;0.55;;;8.60;97.70;;;;;;5052298;28;20028;-72
2022/01/24 03:46:59;;;;;;;1.77;0.68;;;8.60;97.40;;;;;;5052732;28;20025;-72
2022/01/24 03:52:20;;;;;;;2.63;0.93;;;8.70;97.20;;;;;;5052471;28;20535;-72
2022/01/24 03:54:49;;;;;;;2.90;0.80;;;8.70;97.00;;;;;;5052550;28;20366;-72
2022/01/24 03:57:17;;;;;;;2.28;0.80;;;8.50;97.50;;;;;;5052391;28;20147;-72
2022/01/24 03:59:43;;;;;;;1.75;0.70;;;8.50;97.50;;;;;;5052788;28;20079;-72
2022/01/24 04:02:11;;;;;;;2.97;0.70;;;8.50;97.10;;;;;;5034505;28;20527;-72
2022/01/24 04:04:38;;;;;;;2.13;0.70;;;8.60;97.20;;;;;;5052906;28;20143;-72
2022/01/24 04:07:04;;;;;;;2.38;0.90;;;8.70;97.80;;;;;;5053434;28;20025;-73
2022/01/24 04:09:30;;;;;;;1.50;0.68;;;8.60;97.00;;;;;;5052714;28;20524;-74
2022/01/24 04:11:58;;;;;;;1.15;0.70;;;8.60;99.30;;;;;;5052903;28;20449;-72
2022/01/24 04:14:54;;;;;;;3.45;1.20;;;8.50;97.80;;;;;;5053001;28;20025;-74
2022/01/24 04:17:23;;;;;;;1.30;0.67;;;8.60;99.70;;;;;;5052759;28;20496;-73
2022/01/24 04:22:26;;;;;;;1.30;0.80;;;8.60;96.40;;;;;;5052700;28;20393;-72
2022/01/24 04:24:59;;;;;;;2.58;0.80;;;8.50;96.50;;;;;;5052973;28;20025;-74
2022/01/24 04:27:26;;;;;;;2.95;0.80;;;8.50;97.50;;;;;;5034747;28;20438;-72
2022/01/24 04:29:52;;;;;;;1.70;0.85;;;8.50;97.30;;;;;;5053235;28;20029;-72
2022/01/24 04:32:18;;;;;;;2.20;0.80;;;8.50;96.60;;;;;;5052867;28;20042;-72
2022/01/24 04:34:44;;;;;;;1.57;0.77;;;8.40;96.70;;;;;;5052611;28;20041;-73
2022/01/24 04:37:10;;;;;;;1.55;0.80;;;8.30;97.20;;;;;;5052416;28;20552;-73
2022/01/24 04:39:36;;;;;;;4.72;0.98;;;8.30;97.50;;;;;;5052549;28;20051;-74
2022/01/24 04:42:11;;;;;;;2.65;0.90;;;8.20;98.10;;;;;;5052581;28;20366;-73
2022/01/24 04:44:53;;;;;;;2.40;0.80;;;8.10;98.20;;;;;;5052797;28;20433;-74
2022/01/24 04:52:54;;;;;;;1.90;0.80;;;8.00;97.70;;;;;;5052810;28;20082;-73
2022/01/24 04:55:22;;;;;;;1.40;0.70;;;8.00;97.90;;;;;;5052647;28;20070;-74
2022/01/24 04:57:49;;;;;;;1.67;0.70;;;7.90;98.10;;;;;;5052607;28;20028;-72
2022/01/24 05:00:15;;;;;;;2.67;0.80;;;7.90;98.00;;;;;;5034849;28;20033;-74
2022/01/24 05:02:41;;;;;;;2.42;0.90;;;7.80;98.20;;;;;;5052930;28;20048;-74
2022/01/24 05:05:12;;;;;;;1.43;0.70;;;7.80;98.30;;;;;;5052730;28;20122;-74
2022/01/24 05:07:39;;;;;;;2.28;0.75;;;7.80;98.40;;;;;;5053031;28;20037;-72
2022/01/24 05:10:15;;;;;;;3.33;0.93;;;7.80;98.20;;;;;;5052518;28;20028;-74
2022/01/24 05:23:34;;;;;;;2.53;1.00;;;7.70;98.40;;;;;;5053013;28;20459;-72
2022/01/24 05:26:02;;;;;;;2.58;0.80;;;7.60;98.50;;;;;;5053135;28;20488;-72
2022/01/24 05:28:30;;;;;;;3.05;1.08;;;7.60;98.60;;;;;;5053031;28;20021;-72
2022/01/24 05:30:58;;;;;;;1.15;0.70;;;7.60;98.40;;;;;;5052545;28;20039;-72
2022/01/24 05:33:25;;;;;;;2.50;0.90;;;7.60;98.40;;;;;;5052526;28;20060;-73
2022/01/24 05:35:52;;;;;;;2.30;0.88;;;7.60;98.40;;;;;;5052636;28;20025;-73
2022/01/24 05:38:19;;;;;;;2.10;0.80;;;7.50;98.40;;;;;;5052894;28;20029;-73
2022/01/24 05:40:45;;;;;;;1.33;0.80;;;7.50;98.20;;;;;;5052400;28;20497;-73
2022/01/24 05:43:12;;;;;;;3.55;0.90;;;7.50;98.10;;;;;;5053159;28;20028;-73
2022/01/24 05:45:38;;;;;;;1.63;0.80;;;7.50;97.90;;;;;;5052866;28;20071;-72
2022/01/24 05:48:07;;;;;;;2.30;0.82;;;7.60;97.80;;;;;;5034380;28;20546;-72
2022/01/24 05:50:33;;;;;;;2.10;0.85;;;7.60;97.90;;;;;;5052007;28;20445;-70
2022/01/24 05:52:59;;;;;;;3.47;1.50;;;7.60;98.40;;;;;;5048102;28;20104;-70
2022/01/24 05:55:25;;;;;;;2.97;1.07;;;7.60;98.20;;;;;;5050286;28;20096;-70
2022/01/24 05:57:54;;;;;;;1.48;0.80;;;7.70;97.80;;;;;;5050538;28;20014;-72
2022/01/24 06:00:22;;;;;;;6.85;1.38;;;7.80;97.60;;;;;;5051325;28;20029;-71
2022/01/24 06:02:49;;;;;;;1.90;0.80;;;7.80;97.30;;;;;;5033135;28;20478;-70
2022/01/24 06:05:15;;;;;;;1.85;0.82;;;7.90;97.00;;;;;;5033055;28;20020;-72
2022/01/24 06:07:41;;;;;;;2.28;1.02;;;7.90;96.50;;;;;;5049898;28;20420;-72
2022/01/24 06:10:08;;;;;;;4.37;1.53;;;7.90;96.80;;;;;;5049627;28;20029;-71
2022/01/24 06:12:34;;;;;;;;;;;7.90;97.30;;;;;;5051451;28;20009;-72
2022/01/24 06:15:00;;;;;;;3.20;0.90;;;7.80;97.50;;;;;;5032875;28;19905;-71
2022/01/24 06:17:26;;;;;;;2.90;1.00;;;7.60;97.60;;;;;;5051199;28;20040;-71
2022/01/24 06:19:53;;;;;;;3.88;1.05;;;7.60;97.90;;;;;;5050976;28;20482;-72
2022/01/24 06:22:20;;;;;;;2.80;1.10;;;7.60;98.40;;;;;;5051211;28;20355;-72
2022/01/24 06:24:47;;;;;;;2.88;1.02;;;7.60;98.30;;;;;;5051093;28;20032;-72
2022/01/24 06:27:13;;;;;;;1.92;1.00;;;7.60;98.00;;;;;;5051323;28;20362;-72
2022/01/24 06:29:39;;;;;;;2.13;0.90;;;7.60;98.10;;;;;;5051181;28;20453;-71
2022/01/24 06:32:05;;;;;;;3.03;0.95;;;7.70;98.10;;;;;;5050770;28;20067;-72
2022/01/24 06:34:31;;;;;;;3.80;1.15;;;7.80;98.00;;;;;;5050346;28;20044;-73
2022/01/24 06:36:57;;;;;;;3.33;1.23;;;7.80;98.30;;;;;;5049924;28;20044;-72
2022/01/24 06:39:24;;;;;;;2.25;1.10;;;8.30;97.90;;;;;;5049724;28;20287;-72
2022/01/24 06:42:07;;;;;;;3.55;1.30;;;8.90;97.00;;;;;;5050272;28;20471;-70
2022/01/24 06:44:33;;;;;;;3.83;1.50;;;9.70;98.10;;;;;;5047349;28;20025;-69
2022/01/24 06:46:59;;;;;;;3.15;1.30;;;10.60;95.00;;;;;;5050293;28;20111;-70
2022/01/24 06:49:25;;;;;;;3.50;1.23;;;11.10;94.20;;;;;;5050861;28;20021;-71
2022/01/24 06:51:51;;;;;;;5.65;1.73;;;11.50;93.60;;;;;;5050868;28;20087;-72
2022/01/24 06:54:17;;;;;;;4.53;1.10;;;12.00;93.30;;;;;;5051423;28;20043;-73
2022/01/24 06:56:44;;;;;;;4.43;0.93;;;12.50;92.90;;;;;;5051652;28;20503;-72
2022/01/24 06:59:10;;;;;;;2.33;1.10;;;13.20;92.40;;;;;;5050672;28;20029;-72
2022/01/24 07:01:37;;;;;;;5.33;0.80;;;13.70;92.60;;;;;;5050863;28;20060;-72
2022/01/24 07:04:03;;;;;;;;;;;14.20;90.70;;;;;;5051079;28;20029;-72
2022/01/24 07:06:29;;;;;;;2.88;1.20;;;14.20;90.00;;;;;;5050090;28;20448;-74
2022/01/24 07:08:55;;;;;;;2.50;1.17;;;14.10;89.30;;;;;;5051941;28;20112;-74
2022/01/24 07:11:21;;;;;;;4.10;1.17;;;13.80;89.70;;;;;;5054069;28;20104;-73
2022/01/24 07:13:49;;;;;;;5.77;1.43;;;13.30;90.50;;;;;;5054412;28;20036;-74
2022/01/24 07:16:16;;;;;;;4.22;1.33;;;13.50;90.20;;;;;;5054349;28;20052;-73
2022/01/24 07:18:58;;;;;;;9.38;1.58;;;13.70;90.30;;;;;;5053969;28;20044;-73
2022/01/24 07:21:24;;;;;;;3.05;1.40;;;13.70;90.30;;;;;;5032177;28;20050;-75
2022/01/24 07:23:51;;;;;;;4.00;1.20;;;13.60;90.40;;;;;;5034365;28;20029;-73
2022/01/24 07:26:17;;;;;;;3.95;1.30;;;13.50;89.60;;;;;;5033982;28;20034;-74
2022/01/24 07:28:44;;;;;;;4.78;1.27;;;12.90;90.80;;;;;;5034446;28;20078;-75
2022/01/24 07:31:11;;;;;;;3.20;1.60;;;12.80;91.10;;;;;;5034415;28;20483;-75
2022/01/24 07:33:37;;;;;;;;;;;13.10;91.00;;;;;;5034265;28;20454;-77
2022/01/24 07:36:03;;;;;;;4.90;1.00;;;14.00;90.60;;;;;;5033152;28;19905;-78
2022/01/24 07:38:29;;;;;;;3.00;1.23;;;14.20;89.90;;;;;;5033885;28;20086;-78
2022/01/24 07:40:56;;;;;;;4.55;1.92;;;14.40;89.30;;;;;;5032213;28;20037;-79
2022/01/24 07:43:23;;;;;;;7.57;2.10;;;14.10;89.50;;;;;;5032560;28;20017;-78
2022/01/24 07:45:58;;;;;;;10.07;2.30;;;14.00;90.10;;;;;;5033662;28;20121;-82
2022/01/24 07:48:24;;;;;;;7.57;2.55;;;14.10;90.40;;;;;;5055629;23;20017;-79
2022/01/24 07:50:52;;;;;;;12.43;2.83;;;15.10;87.80;;;;;;5014223;28;20477;-81
2022/01/24 07:53:46;;;;;;;9.32;2.03;;;15.00;88.60;;;;;;4996458;28;20264;-82
2022/01/24 07:56:12;;;;;;;7.85;2.20;;;14.90;88.30;;;;;;4996722;28;20057;-81
2022/01/24 07:58:41;;;;;;;3.85;1.65;;;14.20;89.90;;;;;;5014645;28;20022;-81
2022/01/24 08:01:08;;;;;;;3.50;1.48;;;13.30;90.80;;;;;;5014545;28;20037;-80
2022/01/24 08:03:34;;;;;;;7.07;1.85;;;13.00;91.60;;;;;;5014216;28;20028;-82
2022/01/24 08:06:00;;;;;;;5.33;1.70;;;13.20;91.80;;;;;;5014474;28;20494;-82
2022/01/24 08:08:26;;;;;;;7.65;1.58;;;13.40;91.90;;;;;;5014201;28;20546;-82
2022/01/24 08:10:52;;;;;;;2.20;1.10;;;13.30;91.90;;;;;;5014667;28;20077;-80
2022/01/24 08:13:18;;;;;;;4.10;1.57;;;13.10;92.00;;;;;;4996765;28;20499;-80
2022/01/24 08:15:44;;;;;;;10.32;1.63;;;13.20;92.10;;;;;;4996455;28;20761;-78
2022/01/24 08:18:11;;;;;;;2.17;1.10;;;13.30;91.90;;;;;;4995957;28;20435;-77
2022/01/24 08:20:37;;;;;;;6.13;1.40;;;13.30;91.60;;;;;;5012836;28;20095;-78
2022/01/24 08:23:03;;;;;;;12.52;1.88;;;13.40;92.10;;;;;;4996440;28;20065;-78
2022/01/24 08:25:29;;;;;;;4.10;1.40;;;13.40;92.20;;;;;;5013897;28;20073;-79
2022/01/24 08:27:55;;;;;;;2.90;1.17;;;13.40;92.30;;;;;;4995900;28;20284;-78
2022/01/24 08:30:23;;;;;;;4.57;1.10;;;13.20;92.20;;;;;;5013962;28;20487;-78
2022/01/24 08:32:50;;;;;;;3.08;1.02;;;13.30;92.60;;;;;;5013852;28;20269;-78
2022/01/24 08:35:18;;;;;;;6.70;2.42;;;13.50;92.40;;;;;;5013774;28;20029;-79
2022/01/24 08:37:44;;;;;;;8.40;1.20;;;13.60;91.70;;;;;;5013723;28;20030;-79
2022/01/24 08:40:21;;;;;;;3.90;1.23;;;13.60;91.70;;;;;;5013481;28;20038;-79
2022/01/24 08:42:56;;;;;;;5.63;1.20;;;13.30;92.00;;;;;;5014133;28;20268;-80
2022/01/24 08:48:08;;;;;;;3.43;1.00;;;12.90;92.50;;;;;;5013281;28;20054;-80
2022/01/24 08:50:35;;;;;;;5.30;1.23;;;12.90;92.80;;;;;;5018582;23;20046;-80
2022/01/24 08:53:03;;;;;;;2.67;1.00;;;13.00;92.90;;;;;;4996087;28;20033;-81
2022/01/24 08:55:35;;;;;;;8.50;1.27;;;12.90;92.80;;;;;;5013508;28;20052;-79
2022/01/24 08:58:04;;;;;;;5.40;1.20;;;13.10;92.90;;;;;;5013370;28;20017;-80
2022/01/24 09:00:31;;;;;;;5.18;2.08;;;13.10;92.70;;;;;;5014610;28;20169;-80
2022/01/24 09:02:57;;;;;;;2.75;1.08;;;13.20;92.50;;;;;;5012782;28;20032;-79
2022/01/24 09:05:24;;;;;;;2.93;1.03;;;13.10;92.50;;;;;;5012758;28;20454;-78
2022/01/24 09:07:52;;;;;;;2.22;0.90;;;13.00;92.80;;;;;;5012911;28;20346;-80
2022/01/24 09:10:19;;;;;;;1.65;0.80;;;13.20;93.00;;;;;;5012523;28;20029;-80
2022/01/24 09:12:45;;;;;;;6.18;1.05;;;13.50;92.40;;;;;;5013007;28;20018;-80
2022/01/24 09:15:12;;;;;;;4.95;1.48;;;13.70;92.10;;;;;;5012920;28;20366;-80
2022/01/24 09:17:38;;;;;;;3.72;1.05;;;13.90;92.30;;;;;;5012473;28;20026;-80
2022/01/24 09:20:06;;;;;;;4.35;1.10;;;14.00;92.00;;;;;;5012566;28;20034;-80
2022/01/24 09:22:34;;;;;;;3.15;0.85;;;14.10;91.80;;;;;;5012698;28;20387;-80
2022/01/24 09:25:01;;;;;;;2.70;0.80;;;14.00;91.70;;;;;;5012659;28;20022;-79
2022/01/24 09:27:27;;;;;;;;;;;14.10;91.70;;;;;;5012852;28;20025;-77
2022/01/24 09:29:53;;;;;;;3.97;1.10;;;14.20;91.60;;;;;;5012957;28;20226;-79
2022/01/24 09:32:19;;;;;;;3.03;1.13;;;13.90;92.00;;;;;;5012079;28;20017;-80
2022/01/24 09:34:45;;;;;;;4.20;1.27;;;13.90;92.60;;;;;;5012687;28;20057;-79
2022/01/24 09:37:11;;;;;;;3.92;1.33;;;13.80;92.90;;;;;;5012747;28;20060;-81
2022/01/24 09:39:37;;;;;;;4.20;1.90;;;13.70;92.90;;;;;;5012849;28;20069;-81
2022/01/24 09:42:05;;;;;;;5.47;1.90;;;13.50;92.90;;;;;;5012884;28;20103;-80
2022/01/24 09:44:32;;;;;;;5.43;1.73;;;13.30;93.10;;;;;;5012618;28;20541;-82
2022/01/24 09:46:58;;;;;;;5.75;1.63;;;13.50;93.10;;;;;;5012912;28;20068;-81
2022/01/24 09:49:25;;;;;;;5.65;2.15;;;13.50;93.00;;;;;;5012390;28;20018;-81
2022/01/24 09:51:51;;;;;;;;;;;13.60;93.20;;;;;;5012478;28;20052;-79
2022/01/24 09:54:17;;;;;;;6.87;2.33;;;13.60;93.50;;;;;;5012666;28;19905;-81
2022/01/24 09:56:43;;;;;;;7.13;2.50;;;13.70;93.70;;;;;;5011496;28;20265;-80
2022/01/24 09:59:09;;;;;;;8.65;2.33;;;13.60;94.90;;;;;;5011538;28;20327;-80
2022/01/24 10:01:35;;;;;;;5.37;2.40;;;13.70;94.40;;;;;;4994146;28;20049;-79
2022/01/24 10:04:18;;;;;;;7.63;2.10;;;13.70;98.10;;;;;;5012109;28;20276;-80
2022/01/24 10:07:05;;;;;;;5.57;2.10;;;13.80;95.00;;;;;;4994659;28;20026;-80
2022/01/24 10:09:51;;;;;;;5.50;2.10;;;13.80;94.80;;;;;;5013112;28;20370;-80
2022/01/24 10:17:40;;;;;;;4.93;1.70;;;13.00;94.90;;;;;;5012151;28;20393;-82
2022/01/24 10:20:37;;;;;;;4.68;1.60;;;12.70;95.20;;;;;;5011879;28;20042;-81
2022/01/24 10:23:26;;;;;;;4.95;1.60;;;12.30;95.80;;;;;;4992610;23;20072;-81
2022/01/24 10:26:02;;;;;;;4.20;1.50;;;12.10;96.50;;;;;;5012882;28;20025;-83
2022/01/24 10:28:38;;;;;;;3.15;1.40;;;11.90;97.20;;;;;;5011927;28;20048;-82
2022/01/24 10:31:24;;;;;;;3.25;1.35;;;11.60;97.90;;;;;;4994117;28;20026;-82
2022/01/24 10:34:00;;;;;;;5.47;1.30;;;11.40;98.20;;;;;;5012059;28;20018;-78
2022/01/24 10:36:35;;;;;;;3.30;1.17;;;11.10;98.60;;;;;;5009358;28;20107;-79
2022/01/24 10:39:14;;;;;;;3.60;1.08;;;10.90;98.60;;;;;;4992958;28;20026;-79
2022/01/24 10:41:56;;;;;;;2.35;0.68;;;11.00;98.60;;;;;;5010456;28;20037;-80
2022/01/24 10:44:34;;;;;;;1.70;0.70;;;11.10;98.40;;;;;;5009975;28;20021;-82
2022/01/24 10:47:23;;;;;;;3.95;0.80;;;11.10;98.40;;;;;;5015268;28;20029;-80
2022/01/24 10:49:52;;;;;;;2.50;0.80;;;11.30;97.80;;;;;;5015184;28;20080;-81
2022/01/24 10:52:26;;;;;;;3.70;0.85;;;11.40;97.80;;;;;;5014638;28;20181;-81
2022/01/24 10:55:09;;;;;;;7.32;1.10;;;11.40;97.50;;;;;;5014825;28;20045;-80
2022/01/24 10:57:36;;;;;;;2.13;0.85;;;11.50;97.70;;;;;;5014797;28;20096;-80
2022/01/24 11:00:10;;;;;;;1.90;0.80;;;11.50;97.40;;;;;;5014710;28;20060;-79
2022/01/24 11:02:42;;;;;;;1.90;0.73;;;11.30;97.70;;;;;;5014241;28;20682;-81
2022/01/24 11:05:23;;;;;;;2.35;0.90;;;11.10;98.00;;;;;;4996168;28;20022;-79
2022/01/24 11:08:09;;;;;;;2.85;1.02;;;11.00;98.30;;;;;;5015181;28;20111;-80
2022/01/24 11:10:46;;;;;;;2.25;0.90;;;11.00;98.40;;;;;;4997826;28;20046;-79
2022/01/24 11:13:14;;;;;;;2.10;1.00;;;10.90;98.70;;;;;;5015559;28;20026;-79
2022/01/24 11:15:45;;;;;;;3.05;1.00;;;10.70;99.90;;;;;;4997427;28;20038;-80
2022/01/24 11:18:15;;;;;;;5.05;1.60;;;10.70;99.80;;;;;;5014227;28;20384;-80
2022/01/24 11:20:45;;;;;;;3.05;1.00;;;10.70;99.90;;;;;;5014173;28;20034;-80
2022/01/24 11:23:12;;;;;;;3.55;1.60;;;10.70;99.90;;;;;;5021526;28;20033;-78
2022/01/24 11:25:39;;;;;;;;;;;10.60;99.90;;;;;;5035002;28;20057;-80
2022/01/24 11:28:07;;;;;;;1.98;0.88;;;10.60;99.90;;;;;;5033888;28;19912;-79
2022/01/24 11:30:39;;;;;;;3.22;1.17;;;10.60;99.90;;;;;;5033914;28;20057;-79
2022/01/24 11:33:08;;;;;;;4.47;1.35;;;10.50;99.90;;;;;;5034753;28;20091;-80
2022/01/24 11:35:44;;;;;;;2.30;1.00;;;10.50;99.90;;;;;;5033991;28;20481;-79
2022/01/24 11:38:35;;;;;;;2.92;1.13;;;10.60;99.90;;;;;;5034022;28;20084;-79
2022/01/24 11:41:12;;;;;;;5.75;1.20;;;10.70;99.90;;;;;;5033991;28;20045;-79
2022/01/24 11:43:44;;;;;;;4.07;1.20;;;10.80;99.90;;;;;;5033603;28;20131;-78
2022/01/24 11:46:41;;;;;;;4.20;1.27;;;10.80;99.90;;;;;;5016084;28;20021;-81
2022/01/24 11:49:13;;;;;;;3.22;1.10;;;10.90;99.90;;;;;;4996556;28;20042;-83
2022/01/24 11:51:44;;;;;;;2.28;0.90;;;11.00;99.90;;;;;;5014332;28;20026;-81
2022/01/24 11:57:24;;;;;;;4.45;0.80;;;11.10;99.90;;;;;;5014659;28;20029;-82
2022/01/24 12:00:05;;;;;;;3.58;1.08;;;11.00;99.90;;;;;;5014655;28;20037;-81
2022/01/24 12:02:57;;;;;;;2.00;0.80;;;11.00;99.90;;;;;;4996169;28;20129;-82
2022/01/24 12:05:25;;;;;;;1.90;0.80;;;11.10;99.90;;;;;;5014174;28;20022;-82
2022/01/24 12:08:02;;;;;;;3.45;1.02;;;11.10;99.90;;;;;;5013963;28;20026;-80
2022/01/24 12:10:37;;;;;;;3.08;0.98;;;11.20;99.90;;;;;;5013842;28;20021;-82
2022/01/24 12:13:13;;;;;;;1.80;0.90;;;11.10;99.80;;;;;;5013224;28;20021;-82
2022/01/24 12:15:39;;;;;;;3.65;1.38;;;11.10;99.90;;;;;;5013053;28;20057;-82
2022/01/24 12:18:09;;;;;;;4.00;2.03;;;11.20;99.90;;;;;;5013189;28;20033;-82
2022/01/24 12:20:35;;;;;;;2.40;1.00;;;11.20;99.70;;;;;;5012830;28;20465;-83
2022/01/24 12:23:24;;;;;;;4.22;0.98;;;11.20;99.10;;;;;;5013182;28;20124;-83
2022/01/24 12:26:02;;;;;;;6.10;1.45;;;11.30;99.40;;;;;;5013325;28;20418;-83
2022/01/24 12:28:43;;;;;;;3.45;1.25;;;11.30;98.90;;;;;;4995295;28;20117;-81
2022/01/24 12:31:36;;;;;;;4.22;1.10;;;11.50;99.90;;;;;;5012953;28;20105;-81
2022/01/24 12:34:08;;;;;;;2.33;1.20;;;11.30;98.90;;;;;;5013008;28;20482;-81
2022/01/24 12:36:46;;;;;;;3.20;1.08;;;11.20;99.40;;;;;;4995672;28;20096;-81
2022/01/24 12:39:20;;;;;;;2.10;1.13;;;11.20;99.30;;;;;;5013683;28;20412;-81
2022/01/24 12:41:51;;;;;;;3.08;1.20;;;11.20;99.10;;;;;;5013626;28;20026;-81
2022/01/24 12:47:19;;;;;;;4.47;1.58;;;11.50;99.00;;;;;;5013276;28;20033;-82
2022/01/24 12:49:46;;;;;;;2.88;1.23;;;11.60;98.80;;;;;;5013313;28;20073;-81
2022/01/24 12:52:15;;;;;;;2.22;1.20;;;11.60;98.50;;;;;;5013207;28;20022;-81
2022/01/24 12:54:46;;;;;;;4.90;1.20;;;11.50;98.70;;;;;;5013594;28;20060;-81
2022/01/24 12:57:14;;;;;;;2.33;1.20;;;11.40;98.70;;;;;;5013951;28;20438;-81
2022/01/24 13:00:03;;;;;;;4.03;1.27;;;11.40;98.10;;;;;;5013494;28;20073;-81
2022/01/24 13:02:32;;;;;;;3.47;1.27;;;11.30;98.00;;;;;;5013530;28;20186;-81
2022/01/24 13:05:06;;;;;;;2.92;1.23;;;11.30;98.20;;;;;;5012861;28;20038;-81
2022/01/24 13:07:33;;;;;;;3.25;1.20;;;11.40;97.70;;;;;;5013563;28;20434;-81
2022/01/24 13:10:11;;;;;;;5.03;1.30;;;11.30;97.80;;;;;;4995807;28;20030;-82
2022/01/24 13:12:38;;;;;;;2.70;1.30;;;11.30;98.30;;;;;;5013481;28;20105;-84
2022/01/24 13:15:27;;;;;;;3.03;1.65;;;11.30;98.20;;;;;;5013541;28;20108;-82
2022/01/24 13:23:48;;;;;;;4.75;1.30;;;11.30;98.40;;;;;;5010812;28;20438;-82
2022/01/24 13:26:14;;;;;;;2.63;1.40;;;11.30;97.60;;;;;;5011973;28;20030;-82
2022/01/24 13:28:40;;;;;;;2.60;1.20;;;11.20;97.70;;;;;;5011364;28;20124;-81
2022/01/24 13:31:07;;;;;;;5.67;1.40;;;11.30;97.70;;;;;;5011594;28;20034;-82
2022/01/24 13:33:37;;;;;;;2.35;1.13;;;11.20;97.80;;;;;;5011321;28;20037;-82
2022/01/24 13:36:08;;;;;;;4.47;1.33;;;11.20;97.80;;;;;;5011879;28;20038;-82
2022/01/24 13:38:44;;;;;;;4.38;1.17;;;11.30;98.00;;;;;;5011789;28;20069;-82
2022/01/24 13:41:31;;;;;;;4.47;1.27;;;11.30;97.70;;;;;;5010977;28;20045;-84
2022/01/24 13:44:04;;;;;;;3.17;1.60;;;11.20;97.60;;;;;;5011463;28;20026;-82
2022/01/24 13:46:41;;;;;;;4.82;1.30;;;11.30;97.70;;;;;;5011064;28;20037;-83
2022/01/24 13:49:10;;;;;;;4.28;1.42;;;11.30;97.80;;;;;;5011208;28;20157;-84
2022/01/24 13:51:40;;;;;;;2.40;1.20;;;11.20;97.80;;;;;;5011387;28;20045;-84
2022/01/24 13:54:29;;;;;;;3.97;1.27;;;11.30;97.70;;;;;;5019050;28;20107;-82
2022/01/24 13:56:56;;;;;;;3.00;1.25;;;11.50;97.60;;;;;;4953398;29;20040;-82
2022/01/24 13:59:29;;;;;;;3.60;1.33;;;11.70;99.70;;;;;;4952660;29;20125;-82
2022/01/24 14:02:15;;;;;;;3.55;1.33;;;11.70;97.40;;;;;;4951241;29;20122;-83
2022/01/24 14:05:02;;;;;;;5.03;1.42;;;11.60;97.60;;;;;;4949335;29;20074;-81
2022/01/24 14:07:43;;;;;;;2.95;1.30;;;11.80;97.60;;;;;;4936381;29;20111;-84
2022/01/24 14:10:12;;;;;;;2.65;1.50;;;12.00;97.20;;;;;;4984280;22;20056;-82
2022/01/24 14:12:44;;;;;;;3.85;1.67;;;12.20;97.10;;;;;;5128936;22;20020;-81
2022/01/24 14:15:27;;;;;;;4.28;2.20;;;12.20;96.50;;;;;;5024743;28;20052;-81
2022/01/24 14:18:21;;;;;;;5.45;1.80;;;12.30;96.70;;;;;;5007808;28;20021;-82
2022/01/24 14:21:10;;;;;;;3.28;1.27;;;12.30;96.30;;;;;;5046141;28;20037;-81
2022/01/24 14:23:39;;;;;;;6.25;1.42;;;12.00;96.80;;;;;;5045983;28;20020;-81
2022/01/24 14:26:19;;;;;;;3.00;1.25;;;11.80;97.10;;;;;;5045425;28;20033;-82
2022/01/24 14:29:02;;;;;;;3.00;1.48;;;11.90;97.20;;;;;;5046074;28;20044;-81
2022/01/24 14:31:30;;;;;;;3.30;1.40;;;12.00;97.10;;;;;;5050456;28;20081;-81
2022/01/24 14:34:01;;;;;;;4.00;1.40;;;12.10;97.10;;;;;;5049849;28;20413;-81
2022/01/24 14:36:31;;;;;;;5.03;1.02;;;11.90;96.60;;;;;;5026114;28;20024;-81
2022/01/24 14:39:06;;;;;;;3.25;1.20;;;11.70;96.10;;;;;;5044940;28;20025;-79
2022/01/24 14:41:48;;;;;;;4.13;1.15;;;11.60;96.40;;;;;;5035925;28;20052;-81
2022/01/24 14:47:05;;;;;;;5.20;1.40;;;11.40;96.50;;;;;;5036096;28;20045;-82
2022/01/24 14:49:35;;;;;;;4.43;1.20;;;11.40;96.30;;;;;;5035668;28;20467;-81
2022/01/24 14:52:07;;;;;;;3.65;1.35;;;11.30;96.10;;;;;;5035562;28;20036;-81
2022/01/24 14:54:36;;;;;;;11.40;2.90;;;11.40;96.30;;;;;;5035565;28;20033;-81
2022/01/24 14:57:04;;;;;;;3.90;1.50;;;11.60;95.60;;;;;;5017702;28;20534;-82